sensor_id;sensor_type;location;lat;lon;timestamp;P1;durP1;ratioP1;P2;durP2;ratioP2
18114;SDS011;9184;54.390;18.620;2023-08-20T00:00:26;34.20;;;30.73;;
18114;SDS011;9184;54.390;18.620;2023-08-20T00:00:56;32.30;;;28.85;;
18114;SDS011;9184;54.390;18.620;2023-08-20T00:01:27;34.35;;;30.85;;
18114;SDS011;9184;54.390;18.620;2023-08-20T00:01:58;34.75;;;30.95;;
18114;SDS011;9184;54.390;18.620;2023-08-20T00:02:32;35.00;;;31.38;;
18114;SDS011;9184;54.390;18.620;2023-08-20T00:03:08;36.00;;;32.13;;
18114;SDS011;9184;54.390;18.620;2023-08-20T00:03:40;34.75;;;31.38;;
18114;SDS011;9184;54.390;18.620;2023-08-20T00:07:35;33.85;;;30.38;;
18114;SDS011;9184;54.390;18.620;2023-08-20T00:08:07;34.17;;;29.35;;
18114;SDS011;9184;54.390;18.620;2023-08-20T00:08:37;35.25;;;31.55;;
18114;SDS011;9184;54.390;18.620;2023-08-20T00:09:08;36.17;;;32.60;;
18114;SDS011;9184;54.390;18.620;2023-08-20T00:09:38;34.40;;;30.77;;
18114;SDS011;9184;54.390;18.620;2023-08-20T00:10:09;37.15;;;33.15;;
18114;SDS011;9184;54.390;18.620;2023-08-20T00:10:40;36.53;;;32.80;;
18114;SDS011;9184;54.390;18.620;2023-08-20T00:11:11;37.10;;;33.28;;
18114;SDS011;9184;54.390;18.620;2023-08-20T00:11:42;35.40;;;31.77;;
18114;SDS011;9184;54.390;18.620;2023-08-20T00:12:14;36.03;;;31.08;;
18114;SDS011;9184;54.390;18.620;2023-08-20T00:12:45;36.90;;;33.13;;
18114;SDS011;9184;54.390;18.620;2023-08-20T00:13:16;37.58;;;33.53;;
18114;SDS011;9184;54.390;18.620;2023-08-20T00:13:46;36.00;;;32.28;;
18114;SDS011;9184;54.390;18.620;2023-08-20T00:14:17;36.38;;;32.47;;
18114;SDS011;9184;54.390;18.620;2023-08-20T00:14:51;36.30;;;31.90;;
18114;SDS011;9184;54.390;18.620;2023-08-20T00:15:22;37.90;;;33.03;;
18114;SDS011;9184;54.390;18.620;2023-08-20T00:15:56;39.63;;;35.53;;
18114;SDS011;9184;54.390;18.620;2023-08-20T00:16:27;38.20;;;34.17;;
18114;SDS011;9184;54.390;18.620;2023-08-20T00:16:58;39.33;;;35.35;;
18114;SDS011;9184;54.390;18.620;2023-08-20T00:17:30;36.80;;;32.88;;
18114;SDS011;9184;54.390;18.620;2023-08-20T00:18:01;35.40;;;31.77;;
18114;SDS011;9184;54.390;18.620;2023-08-20T00:18:34;34.53;;;31.10;;
18114;SDS011;9184;54.390;18.620;2023-08-20T00:19:06;34.40;;;30.80;;
18114;SDS011;9184;54.390;18.620;2023-08-20T00:19:37;35.15;;;31.48;;
18114;SDS011;9184;54.390;18.620;2023-08-20T00:20:09;37.33;;;33.45;;
18114;SDS011;9184;54.390;18.620;2023-08-20T00:20:40;36.70;;;32.95;;
18114;SDS011;9184;54.390;18.620;2023-08-20T00:21:13;36.20;;;32.55;;
18114;SDS011;9184;54.390;18.620;2023-08-20T00:21:44;43.03;;;34.42;;
18114;SDS011;9184;54.390;18.620;2023-08-20T00:22:15;38.67;;;34.47;;
18114;SDS011;9184;54.390;18.620;2023-08-20T00:22:45;41.28;;;36.92;;
18114;SDS011;9184;54.390;18.620;2023-08-20T00:23:17;39.25;;;35.20;;
18114;SDS011;9184;54.390;18.620;2023-08-20T00:23:48;37.03;;;33.13;;
18114;SDS011;9184;54.390;18.620;2023-08-20T00:24:19;37.45;;;33.60;;
18114;SDS011;9184;54.390;18.620;2023-08-20T00:24:49;39.38;;;32.63;;
18114;SDS011;9184;54.390;18.620;2023-08-20T00:37:59;37.58;;;32.65;;
18114;SDS011;9184;54.390;18.620;2023-08-20T00:38:30;37.95;;;33.55;;
18114;SDS011;9184;54.390;18.620;2023-08-20T00:39:01;36.80;;;32.75;;
18114;SDS011;9184;54.390;18.620;2023-08-20T00:39:32;38.50;;;34.42;;
18114;SDS011;9184;54.390;18.620;2023-08-20T00:40:03;35.38;;;31.67;;
18114;SDS011;9184;54.390;18.620;2023-08-20T00:40:36;36.05;;;32.33;;
18114;SDS011;9184;54.390;18.620;2023-08-20T00:41:06;37.33;;;33.40;;
18114;SDS011;9184;54.390;18.620;2023-08-20T00:41:37;37.47;;;33.65;;
18114;SDS011;9184;54.390;18.620;2023-08-20T00:42:07;35.78;;;32.13;;
18114;SDS011;9184;54.390;18.620;2023-08-20T00:42:40;36.55;;;32.85;;
18114;SDS011;9184;54.390;18.620;2023-08-20T00:43:10;35.50;;;31.92;;
18114;SDS011;9184;54.390;18.620;2023-08-20T00:43:41;39.45;;;33.55;;
18114;SDS011;9184;54.390;18.620;2023-08-20T00:44:11;33.25;;;29.67;;
18114;SDS011;9184;54.390;18.620;2023-08-20T00:44:43;34.90;;;31.30;;
18114;SDS011;9184;54.390;18.620;2023-08-20T00:45:14;34.65;;;30.92;;
18114;SDS011;9184;54.390;18.620;2023-08-20T00:45:46;34.85;;;31.17;;
18114;SDS011;9184;54.390;18.620;2023-08-20T00:46:18;35.17;;;31.58;;
18114;SDS011;9184;54.390;18.620;2023-08-20T00:46:48;36.10;;;32.33;;
18114;SDS011;9184;54.390;18.620;2023-08-20T00:47:19;35.92;;;32.13;;
18114;SDS011;9184;54.390;18.620;2023-08-20T00:47:50;36.45;;;32.55;;
18114;SDS011;9184;54.390;18.620;2023-08-20T00:48:20;35.60;;;31.90;;
18114;SDS011;9184;54.390;18.620;2023-08-20T00:48:53;37.10;;;33.30;;
18114;SDS011;9184;54.390;18.620;2023-08-20T00:49:23;34.88;;;31.38;;
18114;SDS011;9184;54.390;18.620;2023-08-20T00:49:54;36.35;;;31.33;;
18114;SDS011;9184;54.390;18.620;2023-08-20T00:50:24;34.25;;;30.58;;
18114;SDS011;9184;54.390;18.620;2023-08-20T00:50:56;35.95;;;32.15;;
18114;SDS011;9184;54.390;18.620;2023-08-20T00:51:27;34.97;;;31.42;;
18114;SDS011;9184;54.390;18.620;2023-08-20T00:51:58;34.53;;;31.13;;
18114;SDS011;9184;54.390;18.620;2023-08-20T00:52:28;34.08;;;30.40;;
18114;SDS011;9184;54.390;18.620;2023-08-20T00:53:01;35.00;;;31.63;;
18114;SDS011;9184;54.390;18.620;2023-08-20T00:53:33;36.05;;;32.15;;
18114;SDS011;9184;54.390;18.620;2023-08-20T00:54:03;36.35;;;32.20;;
18114;SDS011;9184;54.390;18.620;2023-08-20T00:54:34;34.50;;;31.10;;
18114;SDS011;9184;54.390;18.620;2023-08-20T00:55:06;35.58;;;31.73;;
18114;SDS011;9184;54.390;18.620;2023-08-20T00:55:38;33.92;;;30.48;;
18114;SDS011;9184;54.390;18.620;2023-08-20T00:56:09;34.75;;;31.02;;
18114;SDS011;9184;54.390;18.620;2023-08-20T00:56:39;33.88;;;30.20;;
18114;SDS011;9184;54.390;18.620;2023-08-20T00:57:11;34.05;;;30.75;;
18114;SDS011;9184;54.390;18.620;2023-08-20T00:57:43;35.47;;;31.73;;
18114;SDS011;9184;54.390;18.620;2023-08-20T00:58:15;35.85;;;32.03;;
18114;SDS011;9184;54.390;18.620;2023-08-20T00:58:46;33.63;;;30.23;;
18114;SDS011;9184;54.390;18.620;2023-08-20T00:59:17;34.00;;;30.60;;
18114;SDS011;9184;54.390;18.620;2023-08-20T00:59:47;34.60;;;31.02;;
18114;SDS011;9184;54.390;18.620;2023-08-20T01:00:18;35.33;;;31.73;;
18114;SDS011;9184;54.390;18.620;2023-08-20T01:00:51;34.03;;;30.60;;
18114;SDS011;9184;54.390;18.620;2023-08-20T01:01:21;35.63;;;32.15;;
18114;SDS011;9184;54.390;18.620;2023-08-20T01:01:52;35.65;;;31.90;;
18114;SDS011;9184;54.390;18.620;2023-08-20T01:02:23;39.33;;;34.85;;
18114;SDS011;9184;54.390;18.620;2023-08-20T01:02:53;48.53;;;43.25;;
18114;SDS011;9184;54.390;18.620;2023-08-20T01:03:25;41.47;;;37.13;;
18114;SDS011;9184;54.390;18.620;2023-08-20T01:03:56;36.80;;;32.95;;
18114;SDS011;9184;54.390;18.620;2023-08-20T01:04:27;36.88;;;32.90;;
18114;SDS011;9184;54.390;18.620;2023-08-20T01:04:59;34.50;;;31.08;;
18114;SDS011;9184;54.390;18.620;2023-08-20T01:05:32;34.97;;;31.33;;
18114;SDS011;9184;54.390;18.620;2023-08-20T01:06:05;34.65;;;30.95;;
18114;SDS011;9184;54.390;18.620;2023-08-20T01:06:46;34.42;;;31.05;;
18114;SDS011;9184;54.390;18.620;2023-08-20T01:07:21;34.72;;;29.98;;
18114;SDS011;9184;54.390;18.620;2023-08-20T01:08:02;34.50;;;30.30;;
18114;SDS011;9184;54.390;18.620;2023-08-20T01:08:37;36.65;;;31.00;;
18114;SDS011;9184;54.390;18.620;2023-08-20T01:09:09;33.05;;;29.60;;
18114;SDS011;9184;54.390;18.620;2023-08-20T01:09:47;35.50;;;31.70;;
18114;SDS011;9184;54.390;18.620;2023-08-20T01:10:23;35.00;;;31.38;;
18114;SDS011;9184;54.390;18.620;2023-08-20T01:10:56;34.00;;;30.42;;
18114;SDS011;9184;54.390;18.620;2023-08-20T01:11:29;32.63;;;28.98;;
18114;SDS011;9184;54.390;18.620;2023-08-20T01:12:01;33.63;;;30.23;;
18114;SDS011;9184;54.390;18.620;2023-08-20T01:12:33;33.53;;;30.23;;
18114;SDS011;9184;54.390;18.620;2023-08-20T01:13:04;37.17;;;31.25;;
18114;SDS011;9184;54.390;18.620;2023-08-20T01:13:35;34.50;;;30.65;;
18114;SDS011;9184;54.390;18.620;2023-08-20T01:14:13;32.40;;;29.08;;
18114;SDS011;9184;54.390;18.620;2023-08-20T01:14:44;31.52;;;28.33;;
18114;SDS011;9184;54.390;18.620;2023-08-20T01:15:14;30.95;;;27.85;;
18114;SDS011;9184;54.390;18.620;2023-08-20T01:15:45;32.80;;;29.45;;
18114;SDS011;9184;54.390;18.620;2023-08-20T01:16:17;32.03;;;28.90;;
18114;SDS011;9184;54.390;18.620;2023-08-20T01:16:47;31.73;;;28.42;;
18114;SDS011;9184;54.390;18.620;2023-08-20T01:17:19;32.53;;;29.33;;
18114;SDS011;9184;54.390;18.620;2023-08-20T01:17:49;31.75;;;28.73;;
18114;SDS011;9184;54.390;18.620;2023-08-20T01:18:21;32.97;;;29.60;;
18114;SDS011;9184;54.390;18.620;2023-08-20T01:18:52;33.88;;;30.20;;
18114;SDS011;9184;54.390;18.620;2023-08-20T01:19:23;33.15;;;29.13;;
18114;SDS011;9184;54.390;18.620;2023-08-20T01:19:54;32.17;;;28.83;;
18114;SDS011;9184;54.390;18.620;2023-08-20T01:20:27;32.03;;;28.58;;
18114;SDS011;9184;54.390;18.620;2023-08-20T01:21:01;33.60;;;29.55;;
18114;SDS011;9184;54.390;18.620;2023-08-20T01:21:36;32.70;;;29.40;;
18114;SDS011;9184;54.390;18.620;2023-08-20T01:23:10;31.10;;;27.92;;
18114;SDS011;9184;54.390;18.620;2023-08-20T01:23:48;31.17;;;27.75;;
18114;SDS011;9184;54.390;18.620;2023-08-20T01:24:29;33.22;;;27.83;;
18114;SDS011;9184;54.390;18.620;2023-08-20T01:25:08;32.33;;;29.17;;
18114;SDS011;9184;54.390;18.620;2023-08-20T01:25:46;32.08;;;28.60;;
18114;SDS011;9184;54.390;18.620;2023-08-20T01:26:33;30.45;;;27.45;;
18114;SDS011;9184;54.390;18.620;2023-08-20T01:27:09;33.55;;;30.10;;
18114;SDS011;9184;54.390;18.620;2023-08-20T01:27:42;32.75;;;29.27;;
18114;SDS011;9184;54.390;18.620;2023-08-20T01:28:21;29.90;;;27.00;;
18114;SDS011;9184;54.390;18.620;2023-08-20T01:28:52;32.13;;;28.73;;
18114;SDS011;9184;54.390;18.620;2023-08-20T01:29:24;31.15;;;27.67;;
18114;SDS011;9184;54.390;18.620;2023-08-20T01:29:55;32.38;;;29.02;;
18114;SDS011;9184;54.390;18.620;2023-08-20T01:30:26;30.40;;;27.42;;
18114;SDS011;9184;54.390;18.620;2023-08-20T01:30:57;31.92;;;28.63;;
18114;SDS011;9184;54.390;18.620;2023-08-20T01:31:27;32.88;;;29.58;;
18114;SDS011;9184;54.390;18.620;2023-08-20T01:31:59;32.38;;;29.17;;
18114;SDS011;9184;54.390;18.620;2023-08-20T01:32:30;33.83;;;30.23;;
18114;SDS011;9184;54.390;18.620;2023-08-20T01:33:01;33.08;;;29.63;;
18114;SDS011;9184;54.390;18.620;2023-08-20T01:33:32;33.45;;;29.52;;
18114;SDS011;9184;54.390;18.620;2023-08-20T01:34:03;32.30;;;28.95;;
18114;SDS011;9184;54.390;18.620;2023-08-20T01:34:34;32.10;;;28.60;;
18114;SDS011;9184;54.390;18.620;2023-08-20T01:35:05;32.28;;;28.83;;
18114;SDS011;9184;54.390;18.620;2023-08-20T01:35:36;31.80;;;28.50;;
18114;SDS011;9184;54.390;18.620;2023-08-20T01:36:07;32.42;;;29.02;;
18114;SDS011;9184;54.390;18.620;2023-08-20T01:36:39;31.70;;;28.27;;
18114;SDS011;9184;54.390;18.620;2023-08-20T01:37:12;29.67;;;26.55;;
18114;SDS011;9184;54.390;18.620;2023-08-20T01:37:43;30.27;;;27.35;;
18114;SDS011;9184;54.390;18.620;2023-08-20T01:38:13;31.52;;;28.30;;
18114;SDS011;9184;54.390;18.620;2023-08-20T01:38:44;30.77;;;27.75;;
18114;SDS011;9184;54.390;18.620;2023-08-20T01:39:15;31.38;;;28.08;;
18114;SDS011;9184;54.390;18.620;2023-08-20T01:39:48;31.17;;;27.98;;
18114;SDS011;9184;54.390;18.620;2023-08-20T01:40:19;30.42;;;27.38;;
18114;SDS011;9184;54.390;18.620;2023-08-20T01:40:50;31.00;;;27.80;;
18114;SDS011;9184;54.390;18.620;2023-08-20T01:41:21;30.73;;;27.50;;
18114;SDS011;9184;54.390;18.620;2023-08-20T01:41:51;29.48;;;26.40;;
18114;SDS011;9184;54.390;18.620;2023-08-20T01:42:22;29.58;;;26.60;;
18114;SDS011;9184;54.390;18.620;2023-08-20T01:42:54;30.42;;;27.23;;
18114;SDS011;9184;54.390;18.620;2023-08-20T01:43:25;31.75;;;28.52;;
18114;SDS011;9184;54.390;18.620;2023-08-20T01:43:56;32.00;;;28.67;;
18114;SDS011;9184;54.390;18.620;2023-08-20T01:44:26;31.73;;;28.42;;
18114;SDS011;9184;54.390;18.620;2023-08-20T01:44:58;28.50;;;25.73;;
18114;SDS011;9184;54.390;18.620;2023-08-20T01:45:28;32.30;;;29.00;;
18114;SDS011;9184;54.390;18.620;2023-08-20T01:45:59;31.90;;;28.50;;
18114;SDS011;9184;54.390;18.620;2023-08-20T01:46:29;30.45;;;27.25;;
18114;SDS011;9184;54.390;18.620;2023-08-20T01:47:01;35.63;;;31.77;;
18114;SDS011;9184;54.390;18.620;2023-08-20T01:47:31;31.70;;;28.67;;
18114;SDS011;9184;54.390;18.620;2023-08-20T01:48:02;32.25;;;28.67;;
18114;SDS011;9184;54.390;18.620;2023-08-20T01:48:33;31.75;;;28.42;;
18114;SDS011;9184;54.390;18.620;2023-08-20T01:49:05;34.03;;;30.52;;
18114;SDS011;9184;54.390;18.620;2023-08-20T01:49:35;32.70;;;29.50;;
18114;SDS011;9184;54.390;18.620;2023-08-20T01:50:06;30.90;;;27.63;;
18114;SDS011;9184;54.390;18.620;2023-08-20T01:50:37;31.17;;;27.98;;
18114;SDS011;9184;54.390;18.620;2023-08-20T01:51:08;35.08;;;29.70;;
18114;SDS011;9184;54.390;18.620;2023-08-20T01:51:39;33.78;;;30.17;;
18114;SDS011;9184;54.390;18.620;2023-08-20T01:52:10;32.38;;;29.10;;
18114;SDS011;9184;54.390;18.620;2023-08-20T01:52:42;33.45;;;29.10;;
18114;SDS011;9184;54.390;18.620;2023-08-20T01:53:12;32.28;;;28.52;;
18114;SDS011;9184;54.390;18.620;2023-08-20T01:53:43;31.35;;;27.90;;
18114;SDS011;9184;54.390;18.620;2023-08-20T01:54:14;31.23;;;28.15;;
18114;SDS011;9184;54.390;18.620;2023-08-20T01:54:45;31.00;;;27.52;;
18114;SDS011;9184;54.390;18.620;2023-08-20T01:55:16;33.33;;;29.98;;
18114;SDS011;9184;54.390;18.620;2023-08-20T01:55:46;32.20;;;28.90;;
18114;SDS011;9184;54.390;18.620;2023-08-20T01:56:17;33.17;;;29.75;;
18114;SDS011;9184;54.390;18.620;2023-08-20T01:56:48;32.65;;;29.45;;
18114;SDS011;9184;54.390;18.620;2023-08-20T01:57:19;30.27;;;27.23;;
18114;SDS011;9184;54.390;18.620;2023-08-20T01:57:49;30.55;;;27.55;;
18114;SDS011;9184;54.390;18.620;2023-08-20T01:58:20;30.30;;;27.02;;
18114;SDS011;9184;54.390;18.620;2023-08-20T01:58:52;30.48;;;27.58;;
18114;SDS011;9184;54.390;18.620;2023-08-20T01:59:23;32.72;;;29.42;;
18114;SDS011;9184;54.390;18.620;2023-08-20T01:59:53;29.95;;;27.00;;
18114;SDS011;9184;54.390;18.620;2023-08-20T02:00:24;32.45;;;29.23;;
18114;SDS011;9184;54.390;18.620;2023-08-20T02:00:55;32.83;;;29.30;;
18114;SDS011;9184;54.390;18.620;2023-08-20T02:01:26;31.02;;;27.80;;
18114;SDS011;9184;54.390;18.620;2023-08-20T02:01:57;31.02;;;27.83;;
18114;SDS011;9184;54.390;18.620;2023-08-20T02:02:30;36.25;;;31.00;;
18114;SDS011;9184;54.390;18.620;2023-08-20T02:03:00;32.13;;;28.83;;
18114;SDS011;9184;54.390;18.620;2023-08-20T02:03:31;31.65;;;28.63;;
18114;SDS011;9184;54.390;18.620;2023-08-20T02:04:03;29.65;;;26.67;;
18114;SDS011;9184;54.390;18.620;2023-08-20T02:04:34;30.58;;;27.60;;
18114;SDS011;9184;54.390;18.620;2023-08-20T02:05:05;29.67;;;26.63;;
18114;SDS011;9184;54.390;18.620;2023-08-20T02:05:36;30.45;;;27.33;;
18114;SDS011;9184;54.390;18.620;2023-08-20T02:06:06;31.13;;;27.92;;
18114;SDS011;9184;54.390;18.620;2023-08-20T02:06:37;32.58;;;26.92;;
18114;SDS011;9184;54.390;18.620;2023-08-20T02:07:11;32.00;;;28.58;;
18114;SDS011;9184;54.390;18.620;2023-08-20T02:07:41;31.17;;;27.98;;
18114;SDS011;9184;54.390;18.620;2023-08-20T02:08:12;31.60;;;28.48;;
18114;SDS011;9184;54.390;18.620;2023-08-20T02:08:42;31.23;;;27.88;;
18114;SDS011;9184;54.390;18.620;2023-08-20T02:09:14;31.90;;;28.60;;
18114;SDS011;9184;54.390;18.620;2023-08-20T02:09:44;32.85;;;29.30;;
18114;SDS011;9184;54.390;18.620;2023-08-20T02:10:15;31.83;;;28.50;;
18114;SDS011;9184;54.390;18.620;2023-08-20T02:10:47;32.00;;;28.75;;
18114;SDS011;9184;54.390;18.620;2023-08-20T02:11:18;30.95;;;27.73;;
18114;SDS011;9184;54.390;18.620;2023-08-20T02:11:48;32.92;;;29.48;;
18114;SDS011;9184;54.390;18.620;2023-08-20T02:12:19;32.78;;;29.27;;
18114;SDS011;9184;54.390;18.620;2023-08-20T02:12:50;32.38;;;29.05;;
18114;SDS011;9184;54.390;18.620;2023-08-20T02:13:21;32.38;;;29.08;;
18114;SDS011;9184;54.390;18.620;2023-08-20T02:13:53;33.03;;;29.83;;
18114;SDS011;9184;54.390;18.620;2023-08-20T02:14:24;30.73;;;27.70;;
18114;SDS011;9184;54.390;18.620;2023-08-20T02:14:57;32.30;;;28.85;;
18114;SDS011;9184;54.390;18.620;2023-08-20T02:15:27;31.00;;;27.77;;
18114;SDS011;9184;54.390;18.620;2023-08-20T02:15:58;32.75;;;29.40;;
18114;SDS011;9184;54.390;18.620;2023-08-20T02:16:29;30.42;;;27.33;;
18114;SDS011;9184;54.390;18.620;2023-08-20T02:17:00;30.75;;;27.48;;
18114;SDS011;9184;54.390;18.620;2023-08-20T02:17:31;30.30;;;27.17;;
18114;SDS011;9184;54.390;18.620;2023-08-20T02:18:01;31.00;;;27.75;;
18114;SDS011;9184;54.390;18.620;2023-08-20T02:18:32;29.95;;;26.77;;
18114;SDS011;9184;54.390;18.620;2023-08-20T02:19:04;30.90;;;27.85;;
18114;SDS011;9184;54.390;18.620;2023-08-20T02:19:36;30.27;;;27.20;;
18114;SDS011;9184;54.390;18.620;2023-08-20T02:20:07;31.20;;;27.80;;
18114;SDS011;9184;54.390;18.620;2023-08-20T02:20:41;32.30;;;27.52;;
18114;SDS011;9184;54.390;18.620;2023-08-20T02:21:14;31.23;;;28.02;;
18114;SDS011;9184;54.390;18.620;2023-08-20T02:21:48;29.35;;;26.35;;
18114;SDS011;9184;54.390;18.620;2023-08-20T02:22:19;31.08;;;27.15;;
18114;SDS011;9184;54.390;18.620;2023-08-20T02:22:51;29.85;;;26.80;;
18114;SDS011;9184;54.390;18.620;2023-08-20T02:23:22;31.23;;;27.58;;
18114;SDS011;9184;54.390;18.620;2023-08-20T02:23:53;31.27;;;28.08;;
18114;SDS011;9184;54.390;18.620;2023-08-20T02:24:23;31.05;;;27.85;;
18114;SDS011;9184;54.390;18.620;2023-08-20T02:24:55;30.83;;;27.77;;
18114;SDS011;9184;54.390;18.620;2023-08-20T02:25:26;31.15;;;27.48;;
18114;SDS011;9184;54.390;18.620;2023-08-20T02:25:56;32.08;;;28.77;;
18114;SDS011;9184;54.390;18.620;2023-08-20T02:26:28;32.10;;;28.98;;
18114;SDS011;9184;54.390;18.620;2023-08-20T02:26:59;33.33;;;29.73;;
18114;SDS011;9184;54.390;18.620;2023-08-20T02:27:30;30.50;;;27.50;;
18114;SDS011;9184;54.390;18.620;2023-08-20T02:28:00;31.45;;;28.10;;
18114;SDS011;9184;54.390;18.620;2023-08-20T02:28:31;31.40;;;28.05;;
18114;SDS011;9184;54.390;18.620;2023-08-20T02:29:03;31.73;;;28.33;;
18114;SDS011;9184;54.390;18.620;2023-08-20T02:29:35;30.77;;;27.65;;
18114;SDS011;9184;54.390;18.620;2023-08-20T02:30:06;33.03;;;27.95;;
18114;SDS011;9184;54.390;18.620;2023-08-20T02:30:39;35.53;;;29.20;;
18114;SDS011;9184;54.390;18.620;2023-08-20T02:31:09;33.22;;;28.77;;
18114;SDS011;9184;54.390;18.620;2023-08-20T02:31:40;30.73;;;27.48;;
18114;SDS011;9184;54.390;18.620;2023-08-20T02:32:11;30.60;;;27.40;;
18114;SDS011;9184;54.390;18.620;2023-08-20T02:32:42;29.38;;;26.48;;
18114;SDS011;9184;54.390;18.620;2023-08-20T02:33:12;32.40;;;29.05;;
18114;SDS011;9184;54.390;18.620;2023-08-20T02:33:43;32.03;;;28.85;;
18114;SDS011;9184;54.390;18.620;2023-08-20T02:34:16;31.90;;;28.58;;
18114;SDS011;9184;54.390;18.620;2023-08-20T02:34:48;31.52;;;28.13;;
18114;SDS011;9184;54.390;18.620;2023-08-20T02:35:18;31.13;;;28.23;;
18114;SDS011;9184;54.390;18.620;2023-08-20T02:35:49;31.50;;;28.27;;
18114;SDS011;9184;54.390;18.620;2023-08-20T02:36:21;31.17;;;27.75;;
18114;SDS011;9184;54.390;18.620;2023-08-20T02:36:51;31.70;;;27.92;;
18114;SDS011;9184;54.390;18.620;2023-08-20T02:37:22;30.17;;;27.08;;
18114;SDS011;9184;54.390;18.620;2023-08-20T02:37:52;31.00;;;27.90;;
18114;SDS011;9184;54.390;18.620;2023-08-20T02:38:24;30.42;;;27.30;;
18114;SDS011;9184;54.390;18.620;2023-08-20T02:38:54;31.00;;;27.20;;
18114;SDS011;9184;54.390;18.620;2023-08-20T02:39:25;29.75;;;26.63;;
18114;SDS011;9184;54.390;18.620;2023-08-20T02:39:56;29.60;;;26.60;;
18114;SDS011;9184;54.390;18.620;2023-08-20T02:40:27;33.58;;;26.35;;
18114;SDS011;9184;54.390;18.620;2023-08-20T02:40:58;30.58;;;27.35;;
18114;SDS011;9184;54.390;18.620;2023-08-20T02:41:28;31.00;;;28.00;;
18114;SDS011;9184;54.390;18.620;2023-08-20T02:41:59;29.55;;;26.40;;
18114;SDS011;9184;54.390;18.620;2023-08-20T02:42:30;29.38;;;26.40;;
18114;SDS011;9184;54.390;18.620;2023-08-20T02:43:01;30.83;;;27.63;;
18114;SDS011;9184;54.390;18.620;2023-08-20T02:43:31;30.58;;;27.00;;
18114;SDS011;9184;54.390;18.620;2023-08-20T02:44:03;32.00;;;28.90;;
18114;SDS011;9184;54.390;18.620;2023-08-20T02:44:35;33.15;;;26.85;;
18114;SDS011;9184;54.390;18.620;2023-08-20T02:45:06;30.95;;;27.83;;
18114;SDS011;9184;54.390;18.620;2023-08-20T02:45:40;30.80;;;27.50;;
18114;SDS011;9184;54.390;18.620;2023-08-20T02:46:13;30.85;;;27.75;;
18114;SDS011;9184;54.390;18.620;2023-08-20T02:46:44;31.40;;;28.10;;
18114;SDS011;9184;54.390;18.620;2023-08-20T02:47:15;31.13;;;27.98;;
18114;SDS011;9184;54.390;18.620;2023-08-20T02:47:45;32.20;;;28.00;;
18114;SDS011;9184;54.390;18.620;2023-08-20T02:48:17;32.90;;;29.38;;
18114;SDS011;9184;54.390;18.620;2023-08-20T02:48:47;32.03;;;28.77;;
18114;SDS011;9184;54.390;18.620;2023-08-20T02:49:18;30.83;;;27.52;;
18114;SDS011;9184;54.390;18.620;2023-08-20T02:49:48;32.35;;;28.90;;
18114;SDS011;9184;54.390;18.620;2023-08-20T02:50:20;32.88;;;29.17;;
18114;SDS011;9184;54.390;18.620;2023-08-20T02:50:50;33.33;;;29.38;;
18114;SDS011;9184;54.390;18.620;2023-08-20T02:51:21;32.17;;;28.77;;
18114;SDS011;9184;54.390;18.620;2023-08-20T02:51:51;31.45;;;28.40;;
18114;SDS011;9184;54.390;18.620;2023-08-20T02:52:22;31.70;;;28.25;;
18114;SDS011;9184;54.390;18.620;2023-08-20T02:52:53;37.78;;;30.92;;
18114;SDS011;9184;54.390;18.620;2023-08-20T02:53:24;29.35;;;26.48;;
18114;SDS011;9184;54.390;18.620;2023-08-20T02:53:54;31.17;;;27.92;;
18114;SDS011;9184;54.390;18.620;2023-08-20T02:54:26;31.15;;;27.98;;
18114;SDS011;9184;54.390;18.620;2023-08-20T02:54:57;31.75;;;28.52;;
18114;SDS011;9184;54.390;18.620;2023-08-20T02:55:27;32.30;;;28.95;;
18114;SDS011;9184;54.390;18.620;2023-08-20T02:55:58;34.17;;;30.13;;
18114;SDS011;9184;54.390;18.620;2023-08-20T02:56:30;34.30;;;30.80;;
18114;SDS011;9184;54.390;18.620;2023-08-20T02:57:00;33.72;;;30.30;;
18114;SDS011;9184;54.390;18.620;2023-08-20T02:57:31;33.08;;;29.65;;
18114;SDS011;9184;54.390;18.620;2023-08-20T02:58:01;30.30;;;27.20;;
18114;SDS011;9184;54.390;18.620;2023-08-20T02:58:33;32.10;;;28.70;;
18114;SDS011;9184;54.390;18.620;2023-08-20T02:59:05;33.92;;;30.42;;
18114;SDS011;9184;54.390;18.620;2023-08-20T02:59:36;33.78;;;30.27;;
18114;SDS011;9184;54.390;18.620;2023-08-20T03:00:07;33.40;;;30.00;;
18114;SDS011;9184;54.390;18.620;2023-08-20T03:00:41;31.48;;;28.35;;
18114;SDS011;9184;54.390;18.620;2023-08-20T03:01:18;31.25;;;28.02;;
18114;SDS011;9184;54.390;18.620;2023-08-20T03:01:49;32.45;;;29.08;;
18114;SDS011;9184;54.390;18.620;2023-08-20T03:02:20;32.45;;;29.00;;
18114;SDS011;9184;54.390;18.620;2023-08-20T03:02:51;34.00;;;30.05;;
18114;SDS011;9184;54.390;18.620;2023-08-20T03:03:22;38.22;;;34.22;;
18114;SDS011;9184;54.390;18.620;2023-08-20T03:03:52;39.10;;;30.50;;
18114;SDS011;9184;54.390;18.620;2023-08-20T03:04:23;34.70;;;30.52;;
18114;SDS011;9184;54.390;18.620;2023-08-20T03:04:55;34.92;;;30.20;;
18114;SDS011;9184;54.390;18.620;2023-08-20T03:05:26;32.53;;;29.13;;
18114;SDS011;9184;54.390;18.620;2023-08-20T03:05:56;32.25;;;28.92;;
18114;SDS011;9184;54.390;18.620;2023-08-20T03:06:27;32.75;;;29.52;;
18114;SDS011;9184;54.390;18.620;2023-08-20T03:06:58;38.10;;;34.08;;
18114;SDS011;9184;54.390;18.620;2023-08-20T03:07:29;39.65;;;33.63;;
18114;SDS011;9184;54.390;18.620;2023-08-20T03:07:59;34.45;;;30.95;;
18114;SDS011;9184;54.390;18.620;2023-08-20T03:08:30;35.72;;;32.00;;
18114;SDS011;9184;54.390;18.620;2023-08-20T03:09:01;38.50;;;34.38;;
18114;SDS011;9184;54.390;18.620;2023-08-20T03:09:34;36.50;;;31.40;;
18114;SDS011;9184;54.390;18.620;2023-08-20T03:10:04;34.00;;;30.50;;
18114;SDS011;9184;54.390;18.620;2023-08-20T03:10:36;33.35;;;29.00;;
18114;SDS011;9184;54.390;18.620;2023-08-20T03:11:07;33.38;;;29.65;;
18114;SDS011;9184;54.390;18.620;2023-08-20T03:11:38;31.63;;;28.45;;
18114;SDS011;9184;54.390;18.620;2023-08-20T03:12:08;32.42;;;28.95;;
18114;SDS011;9184;54.390;18.620;2023-08-20T03:12:39;37.03;;;33.10;;
18114;SDS011;9184;54.390;18.620;2023-08-20T03:13:10;33.75;;;30.10;;
18114;SDS011;9184;54.390;18.620;2023-08-20T03:13:41;34.08;;;30.58;;
18114;SDS011;9184;54.390;18.620;2023-08-20T03:14:13;33.40;;;29.80;;
18114;SDS011;9184;54.390;18.620;2023-08-20T03:14:43;33.50;;;29.92;;
18114;SDS011;9184;54.390;18.620;2023-08-20T03:15:15;37.22;;;30.77;;
18114;SDS011;9184;54.390;18.620;2023-08-20T03:15:45;34.75;;;31.17;;
18114;SDS011;9184;54.390;18.620;2023-08-20T03:16:16;39.53;;;30.60;;
18114;SDS011;9184;54.390;18.620;2023-08-20T03:16:47;34.08;;;30.58;;
18114;SDS011;9184;54.390;18.620;2023-08-20T03:17:18;33.42;;;29.90;;
18114;SDS011;9184;54.390;18.620;2023-08-20T03:17:49;33.17;;;29.83;;
18114;SDS011;9184;54.390;18.620;2023-08-20T03:18:19;33.30;;;29.95;;
18114;SDS011;9184;54.390;18.620;2023-08-20T03:18:50;31.77;;;28.58;;
18114;SDS011;9184;54.390;18.620;2023-08-20T03:19:21;31.92;;;28.75;;
18114;SDS011;9184;54.390;18.620;2023-08-20T03:19:55;33.45;;;29.88;;
18114;SDS011;9184;54.390;18.620;2023-08-20T03:20:26;32.75;;;29.33;;
18114;SDS011;9184;54.390;18.620;2023-08-20T03:20:58;33.78;;;30.38;;
18114;SDS011;9184;54.390;18.620;2023-08-20T03:21:29;34.75;;;29.83;;